sensor_id;sensor_type;location;lat;lon;timestamp;pressure;altitude;pressure_sealevel;temperature;humidity
53908;BME280;40469;47.998;7.794;2023-01-27T00:01:45;99256.03;;;-1.67;100.00
53908;BME280;40469;47.998;7.794;2023-01-27T00:04:10;99258.66;;;-1.65;100.00
53908;BME280;40469;47.998;7.794;2023-01-27T00:06:35;99256.25;;;-1.62;100.00
53908;BME280;40469;47.998;7.794;2023-01-27T00:09:01;99250.13;;;-1.66;100.00
53908;BME280;40469;47.998;7.794;2023-01-27T00:11:26;99238.19;;;-1.65;100.00
53908;BME280;40469;47.998;7.794;2023-01-27T00:14:10;99239.91;;;-1.64;100.00
53908;BME280;40469;47.998;7.794;2023-01-27T00:16:35;99234.06;;;-1.62;100.00
53908;BME280;40469;47.998;7.794;2023-01-27T00:19:00;99236.56;;;-1.63;100.00
53908;BME280;40469;47.998;7.794;2023-01-27T00:21:26;99239.97;;;-1.63;100.00
53908;BME280;40469;47.998;7.794;2023-01-27T00:24:12;99240.81;;;-1.64;100.00
53908;BME280;40469;47.998;7.794;2023-01-27T00:26:55;99233.06;;;-1.65;100.00
53908;BME280;40469;47.998;7.794;2023-01-27T00:29:21;99243.16;;;-1.68;100.00
53908;BME280;40469;47.998;7.794;2023-01-27T00:31:46;99241.59;;;-1.65;100.00
53908;BME280;40469;47.998;7.794;2023-01-27T00:34:30;99236.28;;;-1.69;100.00
53908;BME280;40469;47.998;7.794;2023-01-27T00:36:55;99235.56;;;-1.67;100.00
53908;BME280;40469;47.998;7.794;2023-01-27T00:39:20;99239.81;;;-1.67;100.00
53908;BME280;40469;47.998;7.794;2023-01-27T00:41:46;99236.34;;;-1.68;100.00
53908;BME280;40469;47.998;7.794;2023-01-27T00:44:11;99236.50;;;-1.65;100.00
53908;BME280;40469;47.998;7.794;2023-01-27T00:46:40;99233.94;;;-1.65;100.00
53908;BME280;40469;47.998;7.794;2023-01-27T00:49:05;99228.00;;;-1.64;100.00
53908;BME280;40469;47.998;7.794;2023-01-27T00:51:31;99236.41;;;-1.66;100.00
53908;BME280;40469;47.998;7.794;2023-01-27T00:53:56;99232.84;;;-1.70;100.00
53908;BME280;40469;47.998;7.794;2023-01-27T00:56:23;99231.91;;;-1.72;100.00
53908;BME280;40469;47.998;7.794;2023-01-27T00:58:48;99238.13;;;-1.67;100.00
53908;BME280;40469;47.998;7.794;2023-01-27T01:01:15;99237.25;;;-1.67;100.00
53908;BME280;40469;47.998;7.794;2023-01-27T01:03:41;99237.31;;;-1.66;100.00
53908;BME280;40469;47.998;7.794;2023-01-27T01:06:09;99237.03;;;-1.72;100.00
53908;BME280;40469;47.998;7.794;2023-01-27T01:08:35;99232.66;;;-1.75;100.00
53908;BME280;40469;47.998;7.794;2023-01-27T01:11:02;99240.28;;;-1.76;100.00
53908;BME280;40469;47.998;7.794;2023-01-27T01:13:27;99234.41;;;-1.74;100.00
53908;BME280;40469;47.998;7.794;2023-01-27T01:15:54;99238.81;;;-1.71;100.00
53908;BME280;40469;47.998;7.794;2023-01-27T01:18:19;99243.97;;;-1.69;100.00
53908;BME280;40469;47.998;7.794;2023-01-27T01:20:45;99240.47;;;-1.72;100.00
53908;BME280;40469;47.998;7.794;2023-01-27T01:23:11;99237.84;;;-1.73;100.00
53908;BME280;40469;47.998;7.794;2023-01-27T01:25:37;99244.72;;;-1.72;100.00
53908;BME280;40469;47.998;7.794;2023-01-27T01:28:04;99248.06;;;-1.73;100.00
53908;BME280;40469;47.998;7.794;2023-01-27T01:30:30;99254.75;;;-1.77;100.00
53908;BME280;40469;47.998;7.794;2023-01-27T01:32:56;99246.88;;;-1.81;100.00
53908;BME280;40469;47.998;7.794;2023-01-27T01:35:22;99243.41;;;-1.82;100.00
53908;BME280;40469;47.998;7.794;2023-01-27T01:37:49;99244.25;;;-1.83;100.00
53908;BME280;40469;47.998;7.794;2023-01-27T01:40:16;99240.06;;;-1.81;100.00
53908;BME280;40469;47.998;7.794;2023-01-27T01:43:01;99235.88;;;-1.79;100.00
53908;BME280;40469;47.998;7.794;2023-01-27T01:47:55;99230.91;;;-1.76;100.00
53908;BME280;40469;47.998;7.794;2023-01-27T01:50:21;99222.38;;;-1.76;100.00
53908;BME280;40469;47.998;7.794;2023-01-27T01:52:47;99220.75;;;-1.74;100.00
53908;BME280;40469;47.998;7.794;2023-01-27T01:55:12;99215.69;;;-1.73;100.00
53908;BME280;40469;47.998;7.794;2023-01-27T01:57:37;99213.94;;;-1.74;100.00
53908;BME280;40469;47.998;7.794;2023-01-27T02:00:07;99216.31;;;-1.78;100.00
53908;BME280;40469;47.998;7.794;2023-01-27T02:02:34;99215.28;;;-1.82;100.00
53908;BME280;40469;47.998;7.794;2023-01-27T02:05:07;99204.16;;;-1.82;100.00
53908;BME280;40469;47.998;7.794;2023-01-27T02:07:45;99205.03;;;-1.82;100.00
53908;BME280;40469;47.998;7.794;2023-01-27T02:10:12;99199.03;;;-1.82;100.00
53908;BME280;40469;47.998;7.794;2023-01-27T02:12:37;99190.56;;;-1.81;100.00
53908;BME280;40469;47.998;7.794;2023-01-27T02:15:04;99185.88;;;-1.92;100.00
53908;BME280;40469;47.998;7.794;2023-01-27T02:17:29;99192.06;;;-1.86;100.00
53908;BME280;40469;47.998;7.794;2023-01-27T02:25:38;99189.75;;;-1.80;100.00
53908;BME280;40469;47.998;7.794;2023-01-27T02:28:06;99182.97;;;-1.80;100.00
53908;BME280;40469;47.998;7.794;2023-01-27T02:30:32;99189.97;;;-1.76;100.00
53908;BME280;40469;47.998;7.794;2023-01-27T02:32:57;99188.88;;;-1.81;100.00
53908;BME280;40469;47.998;7.794;2023-01-27T02:35:33;99191.59;;;-1.78;100.00
53908;BME280;40469;47.998;7.794;2023-01-27T02:38:00;99185.59;;;-1.78;100.00
53908;BME280;40469;47.998;7.794;2023-01-27T02:40:27;99183.75;;;-1.81;100.00
53908;BME280;40469;47.998;7.794;2023-01-27T02:42:55;99199.25;;;-1.78;100.00
53908;BME280;40469;47.998;7.794;2023-01-27T02:45:21;99189.88;;;-1.77;100.00
53908;BME280;40469;47.998;7.794;2023-01-27T02:47:46;99191.44;;;-1.81;100.00
53908;BME280;40469;47.998;7.794;2023-01-27T02:50:11;99188.25;;;-1.75;100.00
53908;BME280;40469;47.998;7.794;2023-01-27T02:52:37;99184.91;;;-1.74;100.00
53908;BME280;40469;47.998;7.794;2023-01-27T02:55:02;99184.63;;;-1.80;100.00
53908;BME280;40469;47.998;7.794;2023-01-27T02:57:28;99186.41;;;-1.79;100.00
53908;BME280;40469;47.998;7.794;2023-01-27T02:59:53;99178.03;;;-1.75;100.00
53908;BME280;40469;47.998;7.794;2023-01-27T03:02:18;99181.41;;;-1.76;100.00
53908;BME280;40469;47.998;7.794;2023-01-27T03:04:47;99181.34;;;-1.78;100.00
53908;BME280;40469;47.998;7.794;2023-01-27T03:07:13;99185.69;;;-1.75;100.00
53908;BME280;40469;47.998;7.794;2023-01-27T03:09:38;99179.66;;;-1.77;100.00
53908;BME280;40469;47.998;7.794;2023-01-27T03:12:03;99187.13;;;-1.82;100.00
53908;BME280;40469;47.998;7.794;2023-01-27T03:14:43;99193.22;;;-1.80;100.00
53908;BME280;40469;47.998;7.794;2023-01-27T03:17:27;99192.31;;;-1.80;100.00
53908;BME280;40469;47.998;7.794;2023-01-27T03:20:11;99186.31;;;-1.81;100.00
53908;BME280;40469;47.998;7.794;2023-01-27T03:22:36;99196.69;;;-1.78;100.00
53908;BME280;40469;47.998;7.794;2023-01-27T03:25:02;99198.44;;;-1.77;100.00
53908;BME280;40469;47.998;7.794;2023-01-27T03:27:27;99197.63;;;-1.76;100.00
53908;BME280;40469;47.998;7.794;2023-01-27T03:29:53;99195.75;;;-1.80;100.00
53908;BME280;40469;47.998;7.794;2023-01-27T03:32:31;99188.75;;;-1.84;100.00
53908;BME280;40469;47.998;7.794;2023-01-27T03:34:57;99185.38;;;-1.83;100.00
53908;BME280;40469;47.998;7.794;2023-01-27T03:37:24;99187.13;;;-1.82;100.00
53908;BME280;40469;47.998;7.794;2023-01-27T03:40:08;99193.22;;;-1.80;100.00
53908;BME280;40469;47.998;7.794;2023-01-27T03:42:53;99187.19;;;-1.80;100.00
53908;BME280;40469;47.998;7.794;2023-01-27T03:45:37;99190.50;;;-1.83;100.00
53908;BME280;40469;47.998;7.794;2023-01-27T03:48:21;99182.69;;;-1.86;100.00
53908;BME280;40469;47.998;7.794;2023-01-27T03:50:47;99187.00;;;-1.85;100.00
53908;BME280;40469;47.998;7.794;2023-01-27T03:53:20;99193.06;;;-1.83;100.00
53908;BME280;40469;47.998;7.794;2023-01-27T03:55:46;99191.38;;;-1.82;100.00
53908;BME280;40469;47.998;7.794;2023-01-27T03:58:23;99193.28;;;-1.78;100.00
53908;BME280;40469;47.998;7.794;2023-01-27T04:03:17;99198.44;;;-1.77;100.00
53908;BME280;40469;47.998;7.794;2023-01-27T04:06:06;99191.50;;;-1.79;100.00
53908;BME280;40469;47.998;7.794;2023-01-27T04:08:50;99190.75;;;-1.77;100.00
53908;BME280;40469;47.998;7.794;2023-01-27T04:11:16;99199.34;;;-1.76;100.00
53908;BME280;40469;47.998;7.794;2023-01-27T04:14:02;99195.88;;;-1.77;100.00
53908;BME280;40469;47.998;7.794;2023-01-27T04:16:28;99194.31;;;-1.73;100.00
53908;BME280;40469;47.998;7.794;2023-01-27T04:18:57;99202.06;;;-1.72;100.00
53908;BME280;40469;47.998;7.794;2023-01-27T04:21:23;99203.56;;;-1.77;100.00
53908;BME280;40469;47.998;7.794;2023-01-27T04:23:50;99208.00;;;-1.73;100.00
53908;BME280;40469;47.998;7.794;2023-01-27T04:26:15;99208.00;;;-1.73;100.00
53908;BME280;40469;47.998;7.794;2023-01-27T04:28:41;99204.44;;;-1.76;100.00
53908;BME280;40469;47.998;7.794;2023-01-27T04:31:06;99206.31;;;-1.72;100.00
53908;BME280;40469;47.998;7.794;2023-01-27T04:33:31;99195.94;;;-1.75;100.00
53908;BME280;40469;47.998;7.794;2023-01-27T04:35:57;99208.25;;;-1.66;100.00
53908;BME280;40469;47.998;7.794;2023-01-27T04:38:22;99203.06;;;-1.68;100.00
53908;BME280;40469;47.998;7.794;2023-01-27T04:40:48;99204.69;;;-1.70;100.00
53908;BME280;40469;47.998;7.794;2023-01-27T04:43:13;99196.84;;;-1.75;100.00
53908;BME280;40469;47.998;7.794;2023-01-27T04:45:38;99191.91;;;-1.70;100.00
53908;BME280;40469;47.998;7.794;2023-01-27T04:48:04;99202.19;;;-1.68;100.00
53908;BME280;40469;47.998;7.794;2023-01-27T04:50:31;99201.19;;;-1.72;100.00
53908;BME280;40469;47.998;7.794;2023-01-27T04:52:56;99205.63;;;-1.68;100.00
53908;BME280;40469;47.998;7.794;2023-01-27T04:55:21;99203.81;;;-1.70;100.00
53908;BME280;40469;47.998;7.794;2023-01-27T04:57:47;99195.22;;;-1.73;100.00
53908;BME280;40469;47.998;7.794;2023-01-27T05:00:12;99206.47;;;-1.69;100.00
53908;BME280;40469;47.998;7.794;2023-01-27T05:02:38;99206.25;;;-1.74;100.00
53908;BME280;40469;47.998;7.794;2023-01-27T05:05:03;99201.06;;;-1.75;100.00
53908;BME280;40469;47.998;7.794;2023-01-27T05:07:32;99201.13;;;-1.74;100.00
53908;BME280;40469;47.998;7.794;2023-01-27T05:09:57;99196.09;;;-1.72;100.00
53908;BME280;40469;47.998;7.794;2023-01-27T05:12:23;99198.63;;;-1.72;100.00
53908;BME280;40469;47.998;7.794;2023-01-27T05:14:48;99200.41;;;-1.71;100.00
53908;BME280;40469;47.998;7.794;2023-01-27T05:17:14;99200.34;;;-1.73;100.00
53908;BME280;40469;47.998;7.794;2023-01-27T05:19:39;99207.13;;;-1.73;100.00
53908;BME280;40469;47.998;7.794;2023-01-27T05:22:04;99207.06;;;-1.75;100.00
53908;BME280;40469;47.998;7.794;2023-01-27T05:24:30;99202.19;;;-1.68;100.00
53908;BME280;40469;47.998;7.794;2023-01-27T05:26:55;99202.13;;;-1.70;100.00
53908;BME280;40469;47.998;7.794;2023-01-27T05:29:21;99197.78;;;-1.73;100.00
53908;BME280;40469;47.998;7.794;2023-01-27T05:31:47;99202.69;;;-1.77;100.00
53908;BME280;40469;47.998;7.794;2023-01-27T05:34:12;99213.00;;;-1.76;100.00
53908;BME280;40469;47.998;7.794;2023-01-27T05:36:37;99210.38;;;-1.77;100.00
53908;BME280;40469;47.998;7.794;2023-01-27T05:39:03;99203.69;;;-1.74;100.00
53908;BME280;40469;47.998;7.794;2023-01-27T05:41:29;99211.31;;;-1.75;100.00
53908;BME280;40469;47.998;7.794;2023-01-27T05:43:57;99223.22;;;-1.76;100.00
53908;BME280;40469;47.998;7.794;2023-01-27T05:46:25;99224.09;;;-1.75;100.00
53908;BME280;40469;47.998;7.794;2023-01-27T05:48:53;99229.28;;;-1.74;100.00
53908;BME280;40469;47.998;7.794;2023-01-27T05:51:20;99222.69;;;-1.68;100.00
53908;BME280;40469;47.998;7.794;2023-01-27T05:53:46;99228.56;;;-1.71;100.00
53908;BME280;40469;47.998;7.794;2023-01-27T05:56:15;99228.56;;;-1.71;100.00
53908;BME280;40469;47.998;7.794;2023-01-27T05:58:41;99230.28;;;-1.70;100.00
53908;BME280;40469;47.998;7.794;2023-01-27T06:01:14;99230.44;;;-1.67;100.00
53908;BME280;40469;47.998;7.794;2023-01-27T06:03:40;99220.91;;;-1.69;100.00
53908;BME280;40469;47.998;7.794;2023-01-27T06:06:06;99214.94;;;-1.70;100.00
53908;BME280;40469;47.998;7.794;2023-01-27T06:08:32;99213.06;;;-1.74;100.00
53908;BME280;40469;47.998;7.794;2023-01-27T06:10:58;99218.44;;;-1.68;100.00
53908;BME280;40469;47.998;7.794;2023-01-27T06:13:24;99216.69;;;-1.69;100.00
53908;BME280;40469;47.998;7.794;2023-01-27T06:15:49;99226.78;;;-1.72;100.00
53908;BME280;40469;47.998;7.794;2023-01-27T06:18:17;99228.66;;;-1.68;100.00
53908;BME280;40469;47.998;7.794;2023-01-27T06:20:42;99225.16;;;-1.70;100.00
53908;BME280;40469;47.998;7.794;2023-01-27T06:23:09;99222.47;;;-1.73;100.00
53908;BME280;40469;47.998;7.794;2023-01-27T06:25:43;99225.78;;;-1.76;100.00
53908;BME280;40469;47.998;7.794;2023-01-27T06:28:09;99226.94;;;-1.69;100.00
53908;BME280;40469;47.998;7.794;2023-01-27T06:30:36;99239.72;;;-1.69;100.00
53908;BME280;40469;47.998;7.794;2023-01-27T06:33:03;99243.97;;;-1.69;100.00
53908;BME280;40469;47.998;7.794;2023-01-27T06:35:30;99247.50;;;-1.67;100.00
53908;BME280;40469;47.998;7.794;2023-01-27T06:37:59;99237.09;;;-1.70;100.00
53908;BME280;40469;47.998;7.794;2023-01-27T06:40:26;99235.41;;;-1.70;100.00
53908;BME280;40469;47.998;7.794;2023-01-27T06:42:51;99231.28;;;-1.66;100.00
53908;BME280;40469;47.998;7.794;2023-01-27T06:45:17;99235.63;;;-1.65;100.00
53908;BME280;40469;47.998;7.794;2023-01-27T06:47:42;99228.81;;;-1.65;100.00
53908;BME280;40469;47.998;7.794;2023-01-27T06:50:09;99234.78;;;-1.64;100.00
53908;BME280;40469;47.998;7.794;2023-01-27T06:52:35;99240.47;;;-1.72;100.00
53908;BME280;40469;47.998;7.794;2023-01-27T06:55:00;99238.03;;;-1.68;100.00
53908;BME280;40469;47.998;7.794;2023-01-27T06:57:26;99246.41;;;-1.73;100.00
53908;BME280;40469;47.998;7.794;2023-01-27T06:59:52;99245.47;;;-1.75;100.00
53908;BME280;40469;47.998;7.794;2023-01-27T07:02:17;99249.03;;;-1.71;100.00
53908;BME280;40469;47.998;7.794;2023-01-27T07:04:42;99250.03;;;-1.67;100.00
53908;BME280;40469;47.998;7.794;2023-01-27T07:07:08;99251.78;;;-1.66;100.00
53908;BME280;40469;47.998;7.794;2023-01-27T07:09:33;99251.63;;;-1.69;100.00
53908;BME280;40469;47.998;7.794;2023-01-27T07:11:58;99258.44;;;-1.70;100.00
53908;BME280;40469;47.998;7.794;2023-01-27T07:14:23;99257.72;;;-1.67;100.00
53908;BME280;40469;47.998;7.794;2023-01-27T07:16:49;99266.28;;;-1.67;100.00
53908;BME280;40469;47.998;7.794;2023-01-27T07:19:15;99254.34;;;-1.66;100.00
53908;BME280;40469;47.998;7.794;2023-01-27T07:21:41;99271.06;;;-1.75;100.00
53908;BME280;40469;47.998;7.794;2023-01-27T07:24:06;99266.19;;;-1.68;100.00
53908;BME280;40469;47.998;7.794;2023-01-27T07:26:32;99275.66;;;-1.67;100.00
53908;BME280;40469;47.998;7.794;2023-01-27T07:28:57;99273.00;;;-1.69;100.00
53908;BME280;40469;47.998;7.794;2023-01-27T07:31:22;99275.56;;;-1.69;100.00
53908;BME280;40469;47.998;7.794;2023-01-27T07:33:48;99279.06;;;-1.67;100.00
53908;BME280;40469;47.998;7.794;2023-01-27T07:36:13;99280.63;;;-1.70;100.00
53908;BME280;40469;47.998;7.794;2023-01-27T07:38:38;99276.38;;;-1.70;100.00
53908;BME280;40469;47.998;7.794;2023-01-27T07:41:05;99285.06;;;-1.66;100.00
53908;BME280;40469;47.998;7.794;2023-01-27T07:43:32;99291.78;;;-1.68;100.00
53908;BME280;40469;47.998;7.794;2023-01-27T07:45:57;99290.94;;;-1.69;100.00
53908;BME280;40469;47.998;7.794;2023-01-27T07:48:23;99291.59;;;-1.73;100.00
53908;BME280;40469;47.998;7.794;2023-01-27T07:50:48;99289.78;;;-1.76;100.00
53908;BME280;40469;47.998;7.794;2023-01-27T07:53:14;99280.22;;;-1.80;100.00
53908;BME280;40469;47.998;7.794;2023-01-27T07:55:39;99282.16;;;-1.74;100.00
53908;BME280;40469;47.998;7.794;2023-01-27T07:58:05;99281.34;;;-1.73;100.00
53908;BME280;40469;47.998;7.794;2023-01-27T08:00:31;99285.13;;;-1.65;100.00
53908;BME280;40469;47.998;7.794;2023-01-27T08:02:57;99294.28;;;-1.70;100.00
53908;BME280;40469;47.998;7.794;2023-01-27T08:05:24;99289.38;;;-1.65;100.00
53908;BME280;40469;47.998;7.794;2023-01-27T08:07:50;99294.66;;;-1.62;100.00
53908;BME280;40469;47.998;7.794;2023-01-27T08:10:17;99297.22;;;-1.62;100.00
53908;BME280;40469;47.998;7.794;2023-01-27T08:12:43;99285.53;;;-1.56;100.00
53908;BME280;40469;47.998;7.794;2023-01-27T08:15:09;99285.44;;;-1.57;100.00
53908;BME280;40469;47.998;7.794;2023-01-27T08:17:35;99287.16;;;-1.58;100.00
53908;BME280;40469;47.998;7.794;2023-01-27T08:20:00;99294.13;;;-1.54;100.00
53908;BME280;40469;47.998;7.794;2023-01-27T08:22:27;99299.22;;;-1.55;100.00
53908;BME280;40469;47.998;7.794;2023-01-27T08:24:52;99309.50;;;-1.54;100.00
53908;BME280;40469;47.998;7.794;2023-01-27T08:27:18;99318.25;;;-1.48;100.00
53908;BME280;40469;47.998;7.794;2023-01-27T08:29:43;99310.59;;;-1.48;100.00
53908;BME280;40469;47.998;7.794;2023-01-27T08:32:09;99314.03;;;-1.48;100.00
53908;BME280;40469;47.998;7.794;2023-01-27T08:34:35;99325.22;;;-1.46;100.00
53908;BME280;40469;47.998;7.794;2023-01-27T08:37:01;99321.03;;;-1.44;100.00
53908;BME280;40469;47.998;7.794;2023-01-27T08:39:27;99326.38;;;-1.39;100.00
53908;BME280;40469;47.998;7.794;2023-01-27T08:41:52;99323.53;;;-1.45;100.00
53908;BME280;40469;47.998;7.794;2023-01-27T08:44:18;99323.53;;;-1.45;100.00
53908;BME280;40469;47.998;7.794;2023-01-27T08:46:43;99320.97;;;-1.45;100.00
53908;BME280;40469;47.998;7.794;2023-01-27T08:49:08;99327.84;;;-1.44;100.00
53908;BME280;40469;47.998;7.794;2023-01-27T08:51:34;99329.59;;;-1.43;100.00
53908;BME280;40469;47.998;7.794;2023-01-27T08:53:59;99332.38;;;-1.39;100.00
53908;BME280;40469;47.998;7.794;2023-01-27T08:56:25;99327.25;;;-1.39;100.00
53908;BME280;40469;47.998;7.794;2023-01-27T08:58:50;99334.44;;;-1.30;100.00
53908;BME280;40469;47.998;7.794;2023-01-27T09:01:17;99331.81;;;-1.31;100.00
53908;BME280;40469;47.998;7.794;2023-01-27T09:03:43;99324.34;;;-1.27;100.00
53908;BME280;40469;47.998;7.794;2023-01-27T09:06:10;99331.28;;;-1.24;100.00
53908;BME280;40469;47.998;7.794;2023-01-27T09:08:36;99331.97;;;-1.28;100.00
53908;BME280;40469;47.998;7.794;2023-01-27T09:11:13;99332.91;;;-1.26;100.00
53908;BME280;40469;47.998;7.794;2023-01-27T09:13:38;99330.56;;;-1.20;100.00
53908;BME280;40469;47.998;7.794;2023-01-27T09:16:04;99322.78;;;-1.23;100.00
53908;BME280;40469;47.998;7.794;2023-01-27T09:18:29;99326.34;;;-1.20;100.00
53908;BME280;40469;47.998;7.794;2023-01-27T09:20:55;99323.72;;;-1.21;100.00
53908;BME280;40469;47.998;7.794;2023-01-27T09:23:20;99321.31;;;-1.18;100.00
53908;BME280;40469;47.998;7.794;2023-01-27T09:25:45;99323.31;;;-1.11;100.00
53908;BME280;40469;47.998;7.794;2023-01-27T09:28:11;99321.53;;;-1.12;100.00
53908;BME280;40469;47.998;7.794;2023-01-27T09:30:43;99320.81;;;-1.09;100.00
53908;BME280;40469;47.998;7.794;2023-01-27T09:33:10;99317.63;;;-1.04;100.00
53908;BME280;40469;47.998;7.794;2023-01-27T09:35:49;99322.94;;;-0.99;100.00
53908;BME280;40469;47.998;7.794;2023-01-27T09:38:19;99323.94;;;-0.96;100.00
53908;BME280;40469;47.998;7.794;2023-01-27T09:41:10;99329.31;;;-0.89;100.00
53908;BME280;40469;47.998;7.794;2023-01-27T09:46:42;99328.69;;;-0.84;100.00
53908;BME280;40469;47.998;7.794;2023-01-27T09:54:57;99335.91;;;-0.75;100.00
53908;BME280;40469;47.998;7.794;2023-01-27T10:00:00;99342.09;;;-0.70;100.00
53908;BME280;40469;47.998;7.794;2023-01-27T10:10:56;99330.13;;;-0.48;100.00
53908;BME280;40469;47.998;7.794;2023-01-27T10:16:15;99328.13;;;-0.34;100.00
53908;BME280;40469;47.998;7.794;2023-01-27T10:21:30;99340.38;;;-0.27;100.00
53908;BME280;40469;47.998;7.794;2023-01-27T10:27:00;99342.22;;;-0.23;100.00
53908;BME280;40469;47.998;7.794;2023-01-27T10:29:37;99339.06;;;-0.17;100.00
53908;BME280;40469;47.998;7.794;2023-01-27T10:35:23;99347.03;;;-0.10;100.00
53908;BME280;40469;47.998;7.794;2023-01-27T10:37:58;99338.47;;;-0.10;100.00
53908;BME280;40469;47.998;7.794;2023-01-27T10:40:46;99340.13;;;-0.12;100.00
53908;BME280;40469;47.998;7.794;2023-01-27T10:43:29;99327.31;;;-0.11;100.00
53908;BME280;40469;47.998;7.794;2023-01-27T10:46:16;99323.13;;;-0.09;100.00
53908;BME280;40469;47.998;7.794;2023-01-27T10:48:56;99322.09;;;-0.14;100.00
53908;BME280;40469;47.998;7.794;2023-01-27T10:51:28;99317.47;;;0.00;100.00
53908;BME280;40469;47.998;7.794;2023-01-27T10:54:03;99314.22;;;0.04;100.00
53908;BME280;40469;47.998;7.794;2023-01-27T11:04:38;99319.34;;;0.27;100.00
53908;BME280;40469;47.998;7.794;2023-01-27T11:07:06;99309.53;;;0.41;100.00
53908;BME280;40469;47.998;7.794;2023-01-27T11:09:39;99299.44;;;0.45;100.00
53908;BME280;40469;47.998;7.794;2023-01-27T11:12:11;99300.00;;;0.61;100.00
53908;BME280;40469;47.998;7.794;2023-01-27T11:14:47;99305.94;;;0.60;100.00
53908;BME280;40469;47.998;7.794;2023-01-27T11:17:18;99292.09;;;0.56;100.00
53908;BME280;40469;47.998;7.794;2023-01-27T11:22:20;99272.47;;;0.58;100.00
53908;BME280;40469;47.998;7.794;2023-01-27T11:25:21;99283.72;;;0.62;100.00
53908;BME280;40469;47.998;7.794;2023-01-27T11:30:41;99312.84;;;0.86;100.00
53908;BME280;40469;47.998;7.794;2023-01-27T11:35:54;99317.25;;;0.89;100.00
53908;BME280;40469;47.998;7.794;2023-01-27T11:38:21;99323.97;;;0.85;100.00
53908;BME280;40469;47.998;7.794;2023-01-27T11:40:49;99313.69;;;0.85;100.00
53908;BME280;40469;47.998;7.794;2023-01-27T11:43:18;99320.63;;;0.88;100.00
53908;BME280;40469;47.998;7.794;2023-01-27T11:45:44;99312.84;;;0.86;100.00
53908;BME280;40469;47.998;7.794;2023-01-27T11:48:12;99307.63;;;0.83;100.00
53908;BME280;40469;47.998;7.794;2023-01-27T11:50:40;99313.88;;;0.91;100.00
53908;BME280;40469;47.998;7.794;2023-01-27T11:53:16;99302.91;;;0.96;100.00
53908;BME280;40469;47.998;7.794;2023-01-27T11:55:49;99301.03;;;0.91;100.00
53908;BME280;40469;47.998;7.794;2023-01-27T11:58:25;99301.97;;;0.93;100.00
53908;BME280;40469;47.998;7.794;2023-01-27T12:00:58;99304.41;;;0.89;100.00
53908;BME280;40469;47.998;7.794;2023-01-27T12:06:02;99306.19;;;0.91;100.00
53908;BME280;40469;47.998;7.794;2023-01-27T12:11:25;99291.66;;;0.68;100.00
53908;BME280;40469;47.998;7.794;2023-01-27T12:13:54;99291.97;;;0.77;100.00
53908;BME280;40469;47.998;7.794;2023-01-27T12:18:58;99294.88;;;0.86;100.00
53908;BME280;40469;47.998;7.794;2023-01-27T12:21:37;99287.25;;;0.89;100.00
53908;BME280;40469;47.998;7.794;2023-01-27T12:24:04;99294.47;;;1.00;100.00
53908;BME280;40469;47.998;7.794;2023-01-27T12:26:38;99287.00;;;1.07;100.00
53908;BME280;40469;47.998;7.794;2023-01-27T12:29:15;99285.31;;;1.08;100.00
53908;BME280;40469;47.998;7.794;2023-01-27T12:31:46;99266.53;;;1.10;100.00
53908;BME280;40469;47.998;7.794;2023-01-27T12:34:24;99263.91;;;1.09;100.00
53908;BME280;40469;47.998;7.794;2023-01-27T12:36:52;99262.38;;;1.14;100.00
53908;BME280;40469;47.998;7.794;2023-01-27T12:39:44;99254.31;;;1.30;100.00
53908;BME280;40469;47.998;7.794;2023-01-27T12:42:32;99257.66;;;1.55;100.00
53908;BME280;40469;47.998;7.794;2023-01-27T12:44:59;99244.16;;;1.62;100.00
53908;BME280;40469;47.998;7.794;2023-01-27T12:47:26;99240.16;;;1.72;100.00
53908;BME280;40469;47.998;7.794;2023-01-27T12:50:21;99245.47;;;1.77;100.00
53908;BME280;40469;47.998;7.794;2023-01-27T12:53:04;99254.25;;;1.85;100.00
53908;BME280;40469;47.998;7.794;2023-01-27T12:55:36;99246.00;;;1.95;100.00
53908;BME280;40469;47.998;7.794;2023-01-27T12:58:03;99245.56;;;1.81;100.00
53908;BME280;40469;47.998;7.794;2023-01-27T13:00:28;99259.09;;;1.74;100.00
53908;BME280;40469;47.998;7.794;2023-01-27T13:03:05;99253.75;;;1.97;100.00
53908;BME280;40469;47.998;7.794;2023-01-27T13:05:37;99261.28;;;1.89;100.00
53908;BME280;40469;47.998;7.794;2023-01-27T13:08:03;99243.59;;;1.73;100.00
53908;BME280;40469;47.998;7.794;2023-01-27T13:10:29;99256.09;;;1.60;100.00
53908;BME280;40469;47.998;7.794;2023-01-27T13:12:58;99246.44;;;1.53;100.00
53908;BME280;40469;47.998;7.794;2023-01-27T13:15:27;99250.72;;;1.52;100.00
53908;BME280;40469;47.998;7.794;2023-01-27T13:17:55;99251.38;;;1.45;100.00
53908;BME280;40469;47.998;7.794;2023-01-27T13:20:42;99254.13;;;1.51;100.00
53908;BME280;40469;47.998;7.794;2023-01-27T13:28:17;99242.56;;;1.39;100.00
53908;BME280;40469;47.998;7.794;2023-01-27T13:30:48;99250.25;;;1.37;100.00
53908;BME280;40469;47.998;7.794;2023-01-27T13:33:36;99268.47;;;1.43;100.00
53908;BME280;40469;47.998;7.794;2023-01-27T13:36:24;99269.72;;;1.56;100.00
53908;BME280;40469;47.998;7.794;2023-01-27T13:39:33;99268.50;;;1.45;100.00
53908;BME280;40469;47.998;7.794;2023-01-27T13:42:22;99275.72;;;1.57;100.00
53908;BME280;40469;47.998;7.794;2023-01-27T13:48:16;99272.94;;;1.23;100.00
53908;BME280;40469;47.998;7.794;2023-01-27T13:50:50;99276.19;;;1.18;100.00
53908;BME280;40469;47.998;7.794;2023-01-27T13:53:18;99270.81;;;1.10;100.00
53908;BME280;40469;47.998;7.794;2023-01-27T14:07:57;99286.59;;;0.95;100.00
53908;BME280;40469;47.998;7.794;2023-01-27T14:13:52;99288.19;;;0.91;100.00
53908;BME280;40469;47.998;7.794;2023-01-27T14:16:37;99290.75;;;0.91;100.00
53908;BME280;40469;47.998;7.794;2023-01-27T14:22:16;99290.13;;;0.73;100.00
53908;BME280;40469;47.998;7.794;2023-01-27T14:27:44;99294.41;;;0.72;100.00
53908;BME280;40469;47.998;7.794;2023-01-27T14:30:42;99301.22;;;0.72;100.00
53908;BME280;40469;47.998;7.794;2023-01-27T14:33:41;99297.69;;;0.68;100.00
53908;BME280;40469;47.998;7.794;2023-01-27T14:36:49;99300.31;;;0.70;100.00
53908;BME280;40469;47.998;7.794;2023-01-27T14:39:28;99301.84;;;0.65;100.00
53908;BME280;40469;47.998;7.794;2023-01-27T14:42:04;99317.97;;;0.61;100.00